Dades meteomassalio
Diari Summary for Abril 14, 2017 Units:  English    Metric   Both
« Previous Day
Next Day »
Diari Semanal Mensual Anual Personalitzat
  Maxima: Minima: Mijana:
Temperatura: TemperatureC °F 11.0 °F 20.2 °F
Rosada: DewpointC °F -0.5 °F 4 °F
Humitat: Humidity % 20 % 38 %
Velocitat del vent: WindSpeedKMH mph 0.0 mph 5.9 mph
Racha vent: WindSpeedGustKMH mph - -
Vent:- - WSW
Pressio: PressurehPa in 1013.1 in -
Pluja: 0.0 in    
Historical Graphs
 
 
Tabular Data for Abril 14, 2017
Time Temperature Dew Point Pressure Wind Wind Speed Wind Gust Humidity Rainfall Rate (Hourly) solar Conditions
TemperatureC °F DewpointC °F PressurehPa in Calm     Humidity % HourlyPrecipMM in SolarRadiationWatts/m^2 W/m2 Conditions
00:01 15.8 °F 5.9 °F 1015.8 in Calm     52 % 0.0 in 0.0 W/m2 CLR
00:06 15.7 °F 5.9 °F 1015.8 in Calm     52 % 0.0 in 0.0 W/m2 CLR
00:11 15.7 °F 5.8 °F 1016.1 in Calm     52 % 0.0 in 0.0 W/m2 CLR
00:16 15.6 °F 5.8 °F 1016.1 in Calm     52 % 0.0 in 0.0 W/m2 CLR
00:21 15.6 °F 5.8 °F 1016.1 in Calm     52 % 0.0 in 0.0 W/m2 CLR
00:26 15.7 °F 5.9 °F 1016.1 in Calm     52 % 0.0 in 0.0 W/m2 CLR
00:31 15.7 °F 5.9 °F 1016.1 in Calm     52 % 0.0 in 0.0 W/m2 CLR
00:36 15.8 °F 5.9 °F 1016.1 in Calm     52 % 0.0 in 0.0 W/m2 CLR
00:41 15.8 °F 5.9 °F 1016.1 in Calm     52 % 0.0 in 0.0 W/m2 CLR
00:46 15.7 °F 6.2 °F 1016.1 in Calm     53 % 0.0 in 0.0 W/m2 CLR
00:51 15.6 °F 6.1 °F 1016.1 in Calm     53 % 0.0 in 0.0 W/m2 CLR
00:56 15.5 °F 5.9 °F 1016.1 in Calm     53 % 0.0 in 0.0 W/m2 CLR
01:01 15.3 °F 5.8 °F 1016.1 in Calm     53 % 0.0 in 0.0 W/m2 CLR
01:06 15.2 °F 5.7 °F 1016.5 in Calm     53 % 0.0 in 0.0 W/m2 CLR
01:11 15.3 °F 5.7 °F 1016.5 in Calm     53 % 0.0 in 0.0 W/m2 CLR
01:17 15.3 °F 5.8 °F 1016.5 in Calm     53 % 0.0 in 0.0 W/m2 CLR
01:22 15.2 °F 5.9 °F 1016.5 in Calm     54 % 0.0 in 0.0 W/m2 CLR
01:27 14.9 °F 5.7 °F 1016.5 in Calm     54 % 0.0 in 0.0 W/m2 CLR
01:32 14.8 °F 5.9 °F 1016.5 in Calm     55 % 0.0 in 0.0 W/m2 CLR
01:37 14.8 °F 5.9 °F 1016.5 in Calm     55 % 0.0 in 0.0 W/m2 CLR
01:42 14.7 °F 5.8 °F 1016.5 in Calm     55 % 0.0 in 0.0 W/m2 CLR
01:47 14.6 °F 5.9 °F 1016.5 in Calm     56 % 0.0 in 0.0 W/m2 CLR
01:52 14.4 °F 5.8 °F 1016.5 in Calm     56 % 0.0 in 0.0 W/m2 CLR
01:57 14.6 °F 5.6 °F 1016.5 in Calm     55 % 0.0 in 0.0 W/m2 CLR
02:02 14.8 °F 6.1 °F 1016.5 in Calm     56 % 0.0 in 0.0 W/m2 CLR
02:07 14.6 °F 6.1 °F 1016.5 in Calm     57 % 0.0 in 0.0 W/m2 CLR
02:12 14.2 °F 6.0 °F 1016.5 in Calm     58 % 0.0 in 0.0 W/m2 CLR
02:17 13.9 °F 6.1 °F 1016.5 in Calm     59 % 0.0 in 0.0 W/m2 CLR
02:22 13.8 °F 5.9 °F 1016.5 in Calm     59 % 0.0 in 0.0 W/m2 CLR
02:27 13.9 °F 6.0 °F 1016.5 in Calm     59 % 0.0 in 0.0 W/m2 CLR
02:32 14.1 °F 5.7 °F 1016.5 in Calm     57 % 0.0 in 0.0 W/m2 CLR
02:37 14.4 °F 5.8 °F 1016.5 in Calm     56 % 0.0 in 0.0 W/m2 CLR
02:42 14.6 °F 5.9 °F 1016.5 in Calm     56 % 0.0 in 0.0 W/m2 CLR
02:47 14.6 °F 5.6 °F 1016.5 in Calm     55 % 0.0 in 0.0 W/m2 CLR
02:52 14.5 °F 5.8 °F 1016.5 in Calm     56 % 0.0 in 0.0 W/m2 CLR
02:57 14.3 °F 5.9 °F 1016.5 in Calm     57 % 0.0 in 0.0 W/m2 CLR
03:02 14.0 °F 5.8 °F 1016.5 in Calm     58 % 0.0 in 0.0 W/m2 CLR
03:07 13.7 °F 5.8 °F 1016.5 in Calm     59 % 0.0 in 0.0 W/m2 CLR
03:12 13.4 °F 6.0 °F 1016.5 in Calm     61 % 0.0 in 0.0 W/m2 CLR
03:17 13.1 °F 5.5 °F 1016.5 in Calm     60 % 0.0 in 0.0 W/m2 CLR
03:22 13.2 °F 5.6 °F 1016.5 in Calm     60 % 0.0 in 0.0 W/m2 CLR
03:27 13.3 °F 5.5 °F 1016.5 in Calm     59 % 0.0 in 0.0 W/m2 CLR
03:32 13.5 °F 5.9 °F 1016.1 in Calm     60 % 0.0 in 0.0 W/m2 CLR
03:37 13.3 °F 5.5 °F 1016.1 in Calm     59 % 0.0 in 0.0 W/m2 CLR
03:38 13.3 °F 5.5 °F 1016.1 in Calm     59 % 0.0 in 0.0 W/m2 CLR
03:43 13.8 °F 5.2 °F 1016.5 in WSW 5.6 mph 5.6 mph 56 % 0.0 in 0.0 W/m2 CLR
03:48 14.0 °F 5.3 °F 1016.5 in WSW 3.7 mph   56 % 0.0 in 0.0 W/m2 CLR
03:53 13.9 °F 5.3 °F 1016.5 in Calm     56 % 0.0 in 0.0 W/m2 CLR
03:58 13.9 °F 5.3 °F 1016.5 in Calm     56 % 0.0 in 0.0 W/m2 CLR
04:03 14.2 °F 4.8 °F 1016.5 in WSW 5.6 mph 5.6 mph 53 % 0.0 in 0.0 W/m2 CLR
04:08 14.5 °F 5.0 °F 1016.5 in Calm     53 % 0.0 in 0.0 W/m2 CLR
04:13 14.5 °F 5.3 °F 1016.5 in Calm     54 % 0.0 in 0.0 W/m2 CLR
04:18 14.3 °F 4.9 °F 1016.5 in Calm     53 % 0.0 in 0.0 W/m2 CLR
04:23 14.2 °F 5.1 °F 1016.5 in Calm     54 % 0.0 in 0.0 W/m2 CLR
04:28 13.9 °F 5.1 °F 1016.5 in Calm     55 % 0.0 in 0.0 W/m2 CLR
04:33 13.7 °F 5.1 °F 1016.5 in Calm     56 % 0.0 in 0.0 W/m2 CLR
04:38 13.6 °F 5.2 °F 1016.1 in Calm     57 % 0.0 in 0.0 W/m2 CLR
04:43 13.3 °F 4.9 °F 1016.5 in Calm     57 % 0.0 in 0.0 W/m2 CLR
04:48 12.9 °F 5.1 °F 1016.5 in Calm     59 % 0.0 in 0.0 W/m2 CLR
04:53 12.6 °F 5.3 °F 1016.5 in Calm     61 % 0.0 in 0.0 W/m2 CLR
04:58 12.3 °F 5.0 °F 1016.5 in Calm     61 % 0.0 in 0.0 W/m2 CLR
05:03 12.2 °F 4.9 °F 1016.5 in Calm     61 % 0.0 in 0.0 W/m2 CLR
05:08 12.1 °F 4.8 °F 1016.5 in Calm     61 % 0.0 in 0.0 W/m2 CLR
05:13 12.1 °F 4.8 °F 1016.5 in Calm     61 % 0.0 in 0.0 W/m2 CLR
05:18 12.1 °F 5.1 °F 1016.1 in Calm     62 % 0.0 in 0.0 W/m2 CLR
05:23 12.0 °F 4.9 °F 1016.1 in Calm     62 % 0.0 in 0.0 W/m2 CLR
05:28 11.9 °F 4.8 °F 1016.1 in Calm     62 % 0.0 in 0.0 W/m2 CLR
05:33 11.8 °F 4.3 °F 1016.5 in Calm     60 % 0.0 in 0.0 W/m2 CLR
05:38 12.0 °F 3.7 °F 1016.1 in Calm     57 % 0.0 in 0.0 W/m2 CLR
05:43 12.2 °F 2.9 °F 1016.1 in West 1.9 mph 1.9 mph 53 % 0.0 in 0.0 W/m2 CLR
05:48 13.2 °F 2.7 °F 1016.1 in West 13.0 mph 13.0 mph 49 % 0.0 in 0.0 W/m2 CLR
05:53 14.3 °F 2.6 °F 1016.5 in WSW 9.3 mph 9.3 mph 45 % 0.0 in 0.0 W/m2 CLR
05:58 14.6 °F 3.4 °F 1016.5 in WSW 1.9 mph 1.9 mph 47 % 0.0 in 0.0 W/m2 CLR
06:03 14.3 °F 2.8 °F 1016.5 in West 8.0 mph 8.0 mph 46 % 0.0 in 0.0 W/m2 CLR
06:08 14.1 °F 3.2 °F 1016.5 in WSW 5.6 mph 5.6 mph 48 % 0.0 in 0.0 W/m2 CLR
06:13 14.0 °F 3.2 °F 1016.5 in West 5.6 mph 5.6 mph 48 % 0.0 in 0.0 W/m2 CLR
06:18 13.9 °F 3.4 °F 1016.5 in West 8.0 mph 8.0 mph 49 % 0.0 in 0.0 W/m2 CLR
06:23 13.8 °F 3.2 °F 1016.5 in SW 1.6 mph 1.6 mph 49 % 0.0 in 0.0 W/m2 CLR
06:28 13.3 °F 2.8 °F 1016.5 in WSW 5.6 mph 5.6 mph 49 % 0.0 in 0.0 W/m2 CLR
06:33 13.4 °F 2.3 °F 1016.5 in WSW 7.4 mph 7.4 mph 47 % 0.0 in 0.0 W/m2 CLR
06:38 13.5 °F 2.1 °F 1016.1 in WSW 8.0 mph 8.0 mph 46 % 0.0 in 0.0 W/m2 CLR
06:43 13.9 °F 2.2 °F 1016.5 in WSW 13.0 mph 13.0 mph 45 % 0.0 in 0.0 W/m2 CLR
06:48 14.2 °F 2.1 °F 1016.5 in WSW 5.6 mph 5.6 mph 44 % 0.0 in 0.0 W/m2 CLR
06:53 14.2 °F 2.4 °F 1016.5 in SW 5.6 mph 5.6 mph 45 % 0.0 in 0.0 W/m2 CLR
06:58 13.8 °F 3.5 °F 1016.5 in Calm     50 % 0.0 in 0.0 W/m2 CLR
07:03 13.1 °F 3.4 °F 1016.5 in WSW 3.7 mph   52 % 0.0 in 0.0 W/m2 CLR
07:08 12.5 °F 3.2 °F 1016.5 in Calm     53 % 0.0 in 0.0 W/m2 CLR
07:13 12.1 °F 3.6 °F 1016.5 in Calm     56 % 0.0 in 0.0 W/m2 OVC
07:18 11.6 °F 3.6 °F 1016.5 in Calm     58 % 0.0 in 0.0 W/m2 OVC
07:23 11.3 °F 3.1 °F 1016.5 in Calm     57 % 0.0 in 0.0 W/m2 OVC
07:28 11.2 °F 3.5 °F 1016.5 in Calm     59 % 0.0 in 7.0 W/m2 BKN
07:33 11.1 °F 2.8 °F 1016.5 in Calm     57 % 0.0 in 12.0 W/m2 BKN
07:38 11.1 °F 3.3 °F 1016.5 in Calm     59 % 0.0 in 18.0 W/m2 BKN
07:43 11.0 °F 3.1 °F 1016.5 in Calm     58 % 0.0 in 21.0 W/m2 BKN
07:48 11.0 °F 3.1 °F 1016.5 in Calm     58 % 0.0 in 25.0 W/m2 BKN
07:53 11.1 °F 3.3 °F 1016.8 in Calm     59 % 0.0 in 32.0 W/m2 BKN
07:58 11.1 °F 3.1 °F 1016.8 in Calm     58 % 0.0 in 40.0 W/m2 BKN
08:03 11.1 °F 3.4 °F 1016.8 in Calm     59 % 0.0 in 49.0 W/m2 SCT
08:08 11.3 °F 3.3 °F 1016.8 in Calm     58 % 0.0 in 58.0 W/m2 SCT
08:13 11.5 °F 3.3 °F 1016.8 in Calm     57 % 0.0 in 70.0 W/m2 FEW
08:18 11.8 °F 3.3 °F 1016.8 in Calm     56 % 0.0 in 77.0 W/m2 FEW
08:23 12.1 °F 4.1 °F 1016.8 in Calm     58 % 0.0 in 102.0 W/m2 FEW
08:28 12.5 °F 3.7 °F 1016.8 in Calm     55 % 0.0 in 116.0 W/m2 CLR
08:33 12.9 °F 3.8 °F 1016.8 in Calm     54 % 0.0 in 134.0 W/m2 CLR
08:38 13.2 °F 3.8 °F 1016.8 in Calm     53 % 0.0 in 151.0 W/m2 CLR
08:43 13.5 °F 4.1 °F 1016.8 in Calm     53 % 0.0 in 167.0 W/m2 CLR
08:48 13.9 °F 4.4 °F 1017.2 in Calm     53 % 0.0 in 190.0 W/m2 CLR
08:53 14.3 °F 4.8 °F 1016.8 in Calm     53 % 0.0 in 206.0 W/m2 CLR
08:58 14.7 °F 4.4 °F 1016.8 in Calm     50 % 0.0 in 90.0 W/m2 CLR
09:03 15.1 °F 5.3 °F 1016.8 in Calm     52 % 0.0 in 172.0 W/m2 CLR
09:08 15.6 °F 5.5 °F 1016.8 in Calm     51 % 0.0 in 255.0 W/m2 CLR
09:13 16.3 °F 5.0 °F 1016.8 in West 5.6 mph   47 % 0.0 in 274.0 W/m2 CLR
09:19 17.5 °F 1.8 °F 1016.8 in WNW 25.9 mph 25.9 mph 35 % 0.0 in 297.0 W/m2 CLR
09:24 19.0 °F 1.0 °F 1016.8 in West 20.4 mph 20.4 mph 30 % 0.0 in 322.0 W/m2 CLR
09:29 19.7 °F 1.1 °F 1016.8 in WNW 22.2 mph 22.2 mph 29 % 0.0 in 353.0 W/m2 CLR
09:34 20.0 °F 0.9 °F 1016.5 in WNW 25.9 mph 25.9 mph 28 % 0.0 in 381.0 W/m2 CLR
09:39 20.3 °F 1.2 °F 1016.8 in WNW 18.5 mph 18.5 mph 28 % 0.0 in 306.0 W/m2 CLR
09:44 20.3 °F 0.7 °F 1016.8 in WNW 29.6 mph 29.6 mph 27 % 0.0 in 350.0 W/m2 CLR
09:49 20.3 °F 1.2 °F 1016.5 in West 24.1 mph 24.1 mph 28 % 0.0 in 357.0 W/m2 CLR
09:54 20.3 °F 0.7 °F 1016.5 in WNW 14.8 mph 14.8 mph 27 % 0.0 in 272.0 W/m2 CLR
09:59 20.3 °F 0.7 °F 1016.5 in WNW 24.1 mph 24.1 mph 27 % 0.0 in 357.0 W/m2 CLR
10:04 20.5 °F 0.8 °F 1016.5 in West 20.4 mph 20.4 mph 27 % 0.0 in 397.0 W/m2 CLR
10:09 20.7 °F 0.4 °F 1016.5 in WNW 17.7 mph 17.7 mph 26 % 0.0 in 418.0 W/m2 CLR
10:14 20.8 °F 1.6 °F 1016.5 in NW 18.5 mph 18.5 mph 28 % 0.0 in 410.0 W/m2 CLR
10:19 20.9 °F 0.7 °F 1016.8 in WNW 18.5 mph 18.5 mph 26 % 0.0 in 457.0 W/m2 CLR
10:24 21.0 °F 0.2 °F 1016.8 in West 24.1 mph 24.1 mph 25 % 0.0 in 461.0 W/m2 CLR
10:29 21.2 °F 0.9 °F 1016.8 in West 18.5 mph 18.5 mph 26 % 0.0 in 482.0 W/m2 CLR
10:34 21.4 °F 0.6 °F 1016.8 in WNW 24.1 mph 24.1 mph 25 % 0.0 in 401.0 W/m2 CLR
10:39 21.3 °F -0.1 °F 1016.8 in NW 24.1 mph 24.1 mph 24 % 0.0 in 397.0 W/m2 CLR
10:44 21.3 °F -0.1 °F 1016.8 in NNW 14.8 mph 14.8 mph 24 % 0.0 in 388.0 W/m2 CLR
10:49 21.5 °F 0.1 °F 1016.8 in NW 22.5 mph 22.5 mph 24 % 0.0 in 478.0 W/m2 CLR
10:54 21.6 °F -0.5 °F 1016.8 in NW 16.1 mph 16.1 mph 23 % 0.0 in 436.0 W/m2 CLR
10:59 21.6 °F 0.2 °F 1016.8 in WNW 22.2 mph 22.2 mph 24 % 0.0 in 552.0 W/m2 CLR
11:04 21.8 °F 0.3 °F 1016.8 in NW 22.5 mph 22.5 mph 24 % 0.0 in 388.0 W/m2 CLR
11:09 21.7 °F 0.2 °F 1016.8 in WNW 14.5 mph 14.5 mph 24 % 0.0 in 455.0 W/m2 CLR
11:14 21.7 °F -0.3 °F 1016.8 in WNW 7.4 mph 7.4 mph 23 % 0.0 in 401.0 W/m2 CLR
11:19 21.8 °F 0.9 °F 1016.8 in WNW 7.4 mph 7.4 mph 25 % 0.0 in 578.0 W/m2 CLR
11:24 22.1 °F 1.1 °F 1016.8 in WNW 18.5 mph 18.5 mph 25 % 0.0 in 550.0 W/m2 CLR
11:29 22.2 °F 2.3 °F 1016.8 in Calm     27 % 0.0 in 468.0 W/m2 CLR
11:34 22.3 °F 1.9 °F 1016.8 in NNW 16.7 mph 16.7 mph 26 % 0.0 in 578.0 W/m2 CLR
11:39 22.3 °F 1.3 °F 1016.8 in NNW 16.7 mph 16.7 mph 25 % 0.0 in 568.0 W/m2 CLR
11:44 22.4 °F 2.0 °F 1016.8 in WNW 5.6 mph 5.6 mph 26 % 0.0 in 531.0 W/m2 CLR
11:49 22.7 °F 1.7 °F 1016.8 in WNW 16.7 mph 16.7 mph 25 % 0.0 in 626.0 W/m2 CLR
11:54 22.9 °F 1.3 °F 1016.8 in NNW 18.5 mph 18.5 mph 24 % 0.0 in 622.0 W/m2 CLR
11:59 23.1 °F 1.4 °F 1016.8 in NNW 6.4 mph 6.4 mph 24 % 0.0 in 745.0 W/m2 CLR
12:04 23.3 °F 0.9 °F 1016.5 in WNW 18.5 mph 18.5 mph 23 % 0.0 in 686.0 W/m2 CLR
12:09 23.3 °F 1.0 °F 1016.5 in NW 18.5 mph 18.5 mph 23 % 0.0 in 585.0 W/m2 CLR
12:14 23.4 °F 1.7 °F 1016.5 in NW 18.5 mph 18.5 mph 24 % 0.0 in 650.0 W/m2 CLR
12:19 23.6 °F 1.2 °F 1016.5 in WNW 5.6 mph 5.6 mph 23 % 0.0 in 721.0 W/m2 CLR
12:24 23.9 °F 0.9 °F 1016.5 in NW 17.7 mph 17.7 mph 22 % 0.0 in 729.0 W/m2 CLR
12:29 24.0 °F 1.6 °F 1016.5 in WNW 19.3 mph 19.3 mph 23 % 0.0 in 793.0 W/m2 CLR
12:34 24.1 °F 0.4 °F 1016.5 in NW 18.5 mph 18.5 mph 21 % 0.0 in 724.0 W/m2 CLR
12:39 24.3 °F 2.4 °F 1016.5 in WNW 8.0 mph 8.0 mph 24 % 0.0 in 768.0 W/m2 CLR
12:44 24.6 °F 1.4 °F 1016.5 in NW 7.4 mph 7.4 mph 22 % 0.0 in 649.0 W/m2 CLR
12:49 24.7 °F 0.9 °F 1016.5 in NW 16.1 mph 16.1 mph 21 % 0.0 in 675.0 W/m2 CLR
12:54 24.4 °F 0.7 °F 1016.5 in NNW 13.0 mph 13.0 mph 21 % 0.0 in 721.0 W/m2 CLR
12:59 24.5 °F 1.4 °F 1016.5 in WNW 9.3 mph 9.3 mph 22 % 0.0 in 575.0 W/m2 CLR
13:04 24.6 °F 1.4 °F 1016.1 in NNW 20.4 mph 20.4 mph 22 % 0.0 in 766.0 W/m2 CLR
13:09 24.7 °F 0.9 °F 1016.1 in WNW 14.8 mph 14.8 mph 21 % 0.0 in 795.0 W/m2 CLR
13:14 24.9 °F 1.1 °F 1016.1 in NW 18.5 mph 18.5 mph 21 % 0.0 in 698.0 W/m2 CLR
13:19 24.8 °F 1.7 °F 1016.1 in NW 20.4 mph 20.4 mph 22 % 0.0 in 450.0 W/m2 CLR
13:24 24.8 °F 1.7 °F 1016.1 in NNW 3.7 mph 3.7 mph 22 % 0.0 in 536.0 W/m2 CLR
13:29 24.8 °F 1.7 °F 1016.1 in NW 16.7 mph 16.7 mph 22 % 0.0 in 650.0 W/m2 CLR
13:34 24.8 °F 1.6 °F 1016.1 in NNW 7.4 mph 7.4 mph 22 % 0.0 in 294.0 W/m2 CLR
13:39 24.9 °F 2.3 °F 1016.1 in WNW 5.6 mph 5.6 mph 23 % 0.0 in 731.0 W/m2 CLR
13:44 25.3 °F 2.1 °F 1016.1 in NNW 5.6 mph 5.6 mph 22 % 0.0 in 939.0 W/m2 CLR
13:49 25.6 °F 2.3 °F 1015.8 in North 13.0 mph 13.0 mph 22 % 0.0 in 476.0 W/m2 CLR
13:54 25.7 °F 2.3 °F 1015.8 in NW 13.0 mph 13.0 mph 22 % 0.0 in 879.0 W/m2 CLR
13:59 25.8 °F 2.4 °F 1015.8 in WNW 14.8 mph 14.8 mph 22 % 0.0 in 758.0 W/m2 CLR
14:04 25.8 °F 1.8 °F 1015.8 in West 5.6 mph 5.6 mph 21 % 0.0 in 758.0 W/m2 CLR
14:10 26.0 °F 2.6 °F 1015.8 in WNW 5.6 mph 8.0 mph 22 % 0.0 in 831.0 W/m2 CLR
14:15 26.3 °F 2.9 °F 1015.8 in NW 17.7 mph 17.7 mph 22 % 0.0 in 874.0 W/m2 CLR
14:20 26.4 °F 1.6 °F 1015.5 in Calm     20 % 0.0 in 823.0 W/m2 CLR
14:25 26.7 °F 3.2 °F 1015.5 in North 9.3 mph 9.3 mph 22 % 0.0 in 846.0 W/m2 CLR
14:30 26.9 °F 3.4 °F 1015.5 in NNW 14.8 mph 14.8 mph 22 % 0.0 in 744.0 W/m2 CLR
14:35 26.9 °F 3.4 °F 1015.5 in NW 6.4 mph 6.4 mph 22 % 0.0 in 842.0 W/m2 CLR
14:40 27.1 °F 3.6 °F 1015.5 in West 5.6 mph   22 % 0.0 in 868.0 W/m2 CLR
14:45 27.3 °F 3.1 °F 1015.5 in North 3.7 mph 3.7 mph 21 % 0.0 in 809.0 W/m2 CLR
14:50 27.5 °F 3.9 °F 1015.1 in Calm     22 % 0.0 in 840.0 W/m2 CLR
14:55 27.8 °F 3.5 °F 1015.1 in NW 13.0 mph 13.0 mph 21 % 0.0 in 795.0 W/m2 CLR
15:00 27.7 °F 4.7 °F 1015.1 in West 3.7 mph 3.7 mph 23 % 0.0 in 772.0 W/m2 CLR
15:05 27.6 °F 3.9 °F 1014.8 in NNW 4.8 mph 4.8 mph 22 % 0.0 in 791.0 W/m2 CLR
15:10 27.7 °F 4.0 °F 1014.8 in West 13.0 mph 13.0 mph 22 % 0.0 in 809.0 W/m2 CLR
15:15 27.6 °F 3.9 °F 1014.8 in West 13.0 mph 13.0 mph 22 % 0.0 in 802.0 W/m2 CLR
15:20 27.8 °F 4.8 °F 1014.8 in WNW 9.7 mph 9.7 mph 23 % 0.0 in 819.0 W/m2 CLR
15:25 27.8 °F 3.4 °F 1014.8 in NW 5.6 mph   21 % 0.0 in 779.0 W/m2 CLR
15:30 27.8 °F 4.7 °F 1014.8 in West 8.0 mph 8.0 mph 23 % 0.0 in 798.0 W/m2 CLR
15:35 27.9 °F 4.2 °F 1014.4 in West 7.4 mph 7.4 mph 22 % 0.0 in 791.0 W/m2 CLR
15:40 28.0 °F 4.3 °F 1014.4 in NW 11.3 mph 11.3 mph 22 % 0.0 in 782.0 W/m2 CLR
15:45 28.1 °F 3.7 °F 1014.4 in NNE 13.0 mph 13.0 mph 21 % 0.0 in 765.0 W/m2 CLR
15:50 28.0 °F 3.6 °F 1014.1 in NNE 9.3 mph 9.3 mph 21 % 0.0 in 742.0 W/m2 CLR
15:55 28.1 °F 4.4 °F 1014.1 in NE 11.1 mph 11.1 mph 22 % 0.0 in 756.0 W/m2 CLR
16:00 28.2 °F 3.8 °F 1014.1 in NE 9.7 mph 9.7 mph 21 % 0.0 in 745.0 W/m2 CLR
16:05 28.5 °F 4.7 °F 1014.1 in NNE 12.9 mph 12.9 mph 22 % 0.0 in 735.0 W/m2 CLR
16:10 28.4 °F 4.0 °F 1014.1 in North 13.0 mph 13.0 mph 21 % 0.0 in 671.0 W/m2 CLR
16:15 28.1 °F 4.4 °F 1014.1 in NNE 5.6 mph 5.6 mph 22 % 0.0 in 694.0 W/m2 CLR
16:20 28.2 °F 4.4 °F 1013.8 in ENE 5.6 mph 5.6 mph 22 % 0.0 in 705.0 W/m2 CLR
16:25 28.3 °F 3.8 °F 1013.8 in NNE 11.1 mph 11.1 mph 21 % 0.0 in 698.0 W/m2 CLR
16:30 28.3 °F 3.9 °F 1013.8 in NNW 13.0 mph 13.0 mph 21 % 0.0 in 684.0 W/m2 CLR
16:35 28.3 °F 4.6 °F 1013.8 in Calm     22 % 0.0 in 668.0 W/m2 CLR
16:40 28.6 °F 4.1 °F 1013.8 in NE 8.0 mph 8.0 mph 21 % 0.0 in 615.0 W/m2 CLR
16:45 28.7 °F 4.2 °F 1013.8 in NNW 12.9 mph 12.9 mph 21 % 0.0 in 615.0 W/m2 CLR
16:50 28.5 °F 4.1 °F 1013.4 in North 3.7 mph 3.7 mph 21 % 0.0 in 624.0 W/m2 CLR
16:55 28.4 °F 3.9 °F 1013.4 in North 1.9 mph   21 % 0.0 in 606.0 W/m2 CLR
17:00 28.5 °F 4.1 °F 1013.4 in NNE 18.5 mph 18.5 mph 21 % 0.0 in 592.0 W/m2 CLR
17:05 28.5 °F 4.1 °F 1013.4 in NNE 18.5 mph 18.5 mph 21 % 0.0 in 582.0 W/m2 CLR
17:10 28.4 °F 4.6 °F 1013.4 in NNW 14.8 mph 14.8 mph 22 % 0.0 in 584.0 W/m2 CLR
17:15 28.4 °F 4.6 °F 1013.4 in NNE 1.9 mph 1.9 mph 22 % 0.0 in 561.0 W/m2 CLR
17:20 28.5 °F 4.1 °F 1013.4 in NW 14.8 mph 14.8 mph 21 % 0.0 in 547.0 W/m2 CLR
17:25 28.4 °F 4.0 °F 1013.4 in NW 18.5 mph 18.5 mph 21 % 0.0 in 524.0 W/m2 CLR
17:30 28.4 °F 4.0 °F 1013.1 in NNE 5.6 mph 5.6 mph 21 % 0.0 in 522.0 W/m2 CLR
17:35 28.5 °F 4.1 °F 1013.1 in North 5.6 mph 5.6 mph 21 % 0.0 in 510.0 W/m2 CLR
17:40 28.6 °F 4.1 °F 1013.1 in North 5.6 mph 5.6 mph 21 % 0.0 in 494.0 W/m2 CLR
17:45 28.5 °F 4.1 °F 1013.1 in North 20.4 mph 20.4 mph 21 % 0.0 in 464.0 W/m2 CLR
17:50 28.4 °F 4.6 °F 1013.1 in North 14.8 mph 14.8 mph 22 % 0.0 in 436.0 W/m2 CLR
17:55 28.4 °F 4.0 °F 1013.1 in North 18.5 mph 18.5 mph 21 % 0.0 in 443.0 W/m2 CLR
18:00 28.4 °F 3.9 °F 1013.1 in NNW 18.5 mph 18.5 mph 21 % 0.0 in 424.0 W/m2 CLR
18:05 28.3 °F 3.2 °F 1013.1 in NNW 13.0 mph 13.0 mph 20 % 0.0 in 401.0 W/m2 CLR
18:10 28.2 °F 3.8 °F 1013.1 in North 3.7 mph 3.7 mph 21 % 0.0 in 367.0 W/m2 CLR
18:15 28.2 °F 3.8 °F 1013.1 in NNE 14.5 mph 14.5 mph 21 % 0.0 in 383.0 W/m2 CLR
18:21 28.3 °F 3.2 °F 1013.1 in NNE 14.8 mph 14.8 mph 20 % 0.0 in 359.0 W/m2 CLR
18:26 28.2 °F 3.8 °F 1013.1 in NNE 3.7 mph 3.7 mph 21 % 0.0 in 357.0 W/m2 CLR
18:31 28.2 °F 3.8 °F 1013.1 in NNW 13.0 mph 13.0 mph 21 % 0.0 in 327.0 W/m2 CLR
18:36 28.3 °F 3.8 °F 1013.1 in ENE 4.8 mph 4.8 mph 21 % 0.0 in 313.0 W/m2 CLR
18:41 28.3 °F 3.2 °F 1013.1 in NE 14.8 mph 14.8 mph 20 % 0.0 in 299.0 W/m2 CLR
18:46 28.2 °F 3.8 °F 1013.1 in NNE 13.0 mph 13.0 mph 21 % 0.0 in 279.0 W/m2 CLR
18:51 28.1 °F 3.7 °F 1013.1 in North 3.7 mph 3.7 mph 21 % 0.0 in 251.0 W/m2 CLR
18:56 28.1 °F 3.7 °F 1013.1 in NW 9.3 mph 9.3 mph 21 % 0.0 in 232.0 W/m2 CLR
19:01 27.9 °F 3.6 °F 1013.1 in Calm     21 % 0.0 in 207.0 W/m2 CLR
19:06 28.1 °F 4.3 °F 1013.1 in Calm     22 % 0.0 in 197.0 W/m2 CLR
19:11 28.1 °F 3.7 °F 1013.1 in Calm     21 % 0.0 in 91.0 W/m2 CLR
19:16 27.9 °F 3.6 °F 1013.1 in NNE 3.7 mph 3.7 mph 21 % 0.0 in 109.0 W/m2 CLR
19:21 27.7 °F 4.1 °F 1013.1 in Calm     22 % 0.0 in 185.0 W/m2 CLR
19:26 27.6 °F 3.3 °F 1013.1 in Calm     21 % 0.0 in 188.0 W/m2 CLR
19:31 27.6 °F 3.9 °F 1013.1 in Calm     22 % 0.0 in 165.0 W/m2 CLR
19:36 27.6 °F 3.9 °F 1013.1 in Calm     22 % 0.0 in 90.0 W/m2 CLR
19:41 27.5 °F 3.2 °F 1013.1 in Calm     21 % 0.0 in 76.0 W/m2 CLR
19:42 27.5 °F 3.2 °F 1013.1 in Calm     21 % 0.0 in 76.0 W/m2 FEW
19:47 27.5 °F 4.5 °F 1013.1 in Calm     23 % 0.0 in 72.0 W/m2 FEW
19:52 27.4 °F 4.4 °F 1013.1 in Calm     23 % 0.0 in 79.0 W/m2 FEW
19:57 27.4 °F 3.8 °F 1013.1 in Calm     22 % 0.0 in 63.0 W/m2 SCT
20:02 27.3 °F 4.4 °F 1013.1 in Calm     23 % 0.0 in 56.0 W/m2 SCT
20:07 27.2 °F 4.9 °F 1013.1 in Calm     24 % 0.0 in 49.0 W/m2 SCT
20:12 26.6 °F 4.9 °F 1013.1 in SE 9.3 mph 9.3 mph 25 % 0.0 in 37.0 W/m2 BKN
20:17 26.2 °F 5.2 °F 1013.1 in SSE 5.6 mph 5.6 mph 26 % 0.0 in 23.0 W/m2 BKN
20:22 25.9 °F 5.5 °F 1013.1 in SE 6.4 mph 6.4 mph 27 % 0.0 in 21.0 W/m2 BKN
20:27 25.8 °F 5.3 °F 1013.1 in Calm     27 % 0.0 in 12.0 W/m2 BKN
20:32 25.6 °F 5.7 °F 1013.1 in Calm     28 % 0.0 in 7.0 W/m2 BKN
20:37 25.3 °F 6.0 °F 1013.4 in SSE 5.6 mph 5.6 mph 29 % 0.0 in 0.0 W/m2 OVC
20:42 25.1 °F 6.3 °F 1013.4 in Calm     30 % 0.0 in 0.0 W/m2 OVC
20:47 24.8 °F 6.5 °F 1013.4 in Calm     31 % 0.0 in 0.0 W/m2 OVC
20:52 24.3 °F 6.6 °F 1013.4 in Calm     32 % 0.0 in 0.0 W/m2 CLR
20:57 23.9 °F 6.6 °F 1013.8 in Calm     33 % 0.0 in 0.0 W/m2 CLR
21:02 23.4 °F 6.2 °F 1013.8 in Calm     33 % 0.0 in 0.0 W/m2 CLR
21:07 23.2 °F 6.4 °F 1013.8 in Calm     34 % 0.0 in 0.0 W/m2 CLR
21:12 23.0 °F 6.3 °F 1013.8 in Calm     34 % 0.0 in 0.0 W/m2 CLR
21:17 22.8 °F 6.2 °F 1014.1 in Calm     34 % 0.0 in 0.0 W/m2 CLR
21:22 22.7 °F 6.1 °F 1014.1 in Calm     34 % 0.0 in 0.0 W/m2 CLR
21:27 22.6 °F 5.9 °F 1014.1 in Calm     34 % 0.0 in 0.0 W/m2 CLR
21:32 22.4 °F 6.2 °F 1014.1 in Calm     35 % 0.0 in 0.0 W/m2 CLR
21:37 22.1 °F 6.7 °F 1014.4 in Calm     37 % 0.0 in 0.0 W/m2 CLR
21:42 21.6 °F 6.3 °F 1014.4 in Calm     37 % 0.0 in 0.0 W/m2 CLR
21:47 21.1 °F 6.6 °F 1014.4 in Calm     39 % 0.0 in 0.0 W/m2 CLR
21:52 20.6 °F 6.9 °F 1014.4 in Calm     41 % 0.0 in 0.0 W/m2 CLR
21:58 20.1 °F 6.4 °F 1014.8 in West 3.7 mph 3.7 mph 41 % 0.0 in 0.0 W/m2 CLR
22:03 19.7 °F 6.4 °F 1014.8 in Calm     42 % 0.0 in 0.0 W/m2 CLR
22:08 19.4 °F 6.6 °F 1014.8 in Calm     43 % 0.0 in 0.0 W/m2 CLR
22:13 19.2 °F 6.9 °F 1015.1 in Calm     45 % 0.0 in 0.0 W/m2 CLR
22:18 18.7 °F 6.5 °F 1015.1 in Calm     45 % 0.0 in 0.0 W/m2 CLR
22:23 18.5 °F 6.3 °F 1015.1 in Calm     45 % 0.0 in 0.0 W/m2 CLR
22:28 18.2 °F 6.3 °F 1015.5 in Calm     46 % 0.0 in 0.0 W/m2 CLR
22:33 18.1 °F 6.6 °F 1015.1 in SW 11.3 mph 11.3 mph 47 % 0.0 in 0.0 W/m2 CLR
22:38 17.8 °F 6.3 °F 1015.1 in Calm   0.5 mph 47 % 0.0 in 0.0 W/m2 CLR
22:43 18.4 °F 6.6 °F 1015.1 in NW 5.6 mph   46 % 0.0 in 0.0 W/m2 CLR
22:48 18.7 °F 6.2 °F 1015.5 in SW 5.6 mph 5.6 mph 44 % 0.0 in 0.0 W/m2 CLR
22:53 19.0 °F 6.4 °F 1015.5 in Calm     44 % 0.0 in 0.0 W/m2 CLR
22:58 18.8 °F 6.6 °F 1015.5 in Calm     45 % 0.0 in 0.0 W/m2 CLR
23:03 18.6 °F 6.8 °F 1015.5 in Calm     46 % 0.0 in 0.0 W/m2 CLR
23:08 18.4 °F 6.6 °F 1015.5 in Calm     46 % 0.0 in 0.0 W/m2 CLR
23:13 18.3 °F 6.4 °F 1015.5 in WSW 3.2 mph 3.2 mph 46 % 0.0 in 0.0 W/m2 CLR
23:18 18.4 °F 6.3 °F 1015.5 in SW 1.9 mph   45 % 0.0 in 0.0 W/m2 CLR
23:23 18.4 °F 6.3 °F 1015.5 in Calm     45 % 0.0 in 0.0 W/m2 CLR
23:28 18.3 °F 6.1 °F 1015.5 in Calm     45 % 0.0 in 0.0 W/m2 CLR
23:33 18.1 °F 6.0 °F 1015.5 in Calm   0.5 mph 45 % 0.0 in 0.0 W/m2 CLR
23:38 17.9 °F 6.2 °F 1015.5 in WSW 4.8 mph 4.8 mph 46 % 0.0 in 0.0 W/m2 CLR
23:43 17.7 °F 6.2 °F 1015.5 in WSW 5.6 mph 5.6 mph 47 % 0.0 in 0.0 W/m2 CLR
23:48 18.0 °F 5.9 °F 1015.5 in WSW 9.3 mph 9.3 mph 45 % 0.0 in 0.0 W/m2 CLR
23:53 18.6 °F 6.4 °F 1015.8 in Calm     45 % 0.0 in 0.0 W/m2 CLR
23:58 18.2 °F 6.1 °F 1015.8 in WSW 5.6 mph 5.6 mph 45 % 0.0 in 0.0 W/m2 CLR
Lo Temps de Massalio
Compliments of Weather Underground - 1.25 mb